Time;durP1;ratioP1;P1;durP2;ratioP2;P2;SDS_P1;SDS_P2;PMS_P1;PMS_P2;Temp;Humidity;BMP_temperature;BMP_pressure;BME280_temperature;BME280_humidity;BME280_pressure;Samples;Min_cycle;Max_cycle;Signal;HPM_P1;HPM_P2
2021/11/02 00:02:04;;;;;;;6.20;3.87;;;6.80;99.90;;;;;;5016258;28;20209;-61
2021/11/02 00:04:34;;;;;;;8.30;4.17;;;6.80;99.90;;;;;;5036371;28;20190;-61
2021/11/02 00:07:03;;;;;;;4.10;3.60;;;6.70;99.90;;;;;;5039274;28;20205;-61
2021/11/02 00:09:36;;;;;;;5.00;3.60;;;6.70;99.90;;;;;;5035943;28;20348;-61
2021/11/02 00:12:06;;;;;;;6.13;3.93;;;6.60;99.90;;;;;;5051122;28;20249;-61
2021/11/02 00:14:35;;;;;;;6.03;3.80;;;6.50;99.90;;;;;;5038496;28;20247;-61
2021/11/02 00:17:07;;;;;;;4.80;3.73;;;6.40;99.90;;;;;;5037600;28;20716;-60
2021/11/02 00:19:41;;;;;;;7.10;3.80;;;6.30;99.90;;;;;;5036643;28;20184;-60
2021/11/02 00:22:15;;;;;;;4.10;3.70;;;6.20;99.90;;;;;;5037157;28;20258;-61
2021/11/02 00:24:56;;;;;;;5.57;4.40;;;6.20;99.90;;;;;;5036434;28;20683;-60
2021/11/02 00:27:27;;;;;;;5.70;4.17;;;6.20;99.90;;;;;;5059720;28;20196;-61
2021/11/02 00:29:56;;;;;;;3.97;3.67;;;6.20;99.90;;;;;;5042024;28;20297;-61
2021/11/02 00:32:25;;;;;;;7.43;3.97;;;6.20;99.90;;;;;;5037978;28;21862;-61
2021/11/02 00:34:57;;;;;;;5.23;3.90;;;6.20;99.90;;;;;;5043650;28;20216;-61
2021/11/02 00:37:25;;;;;;;5.43;3.80;;;6.10;99.90;;;;;;5036585;28;20204;-61
2021/11/02 00:39:54;;;;;;;4.97;3.77;;;6.10;99.90;;;;;;5040615;28;20288;-60
2021/11/02 00:42:27;;;;;;;6.13;4.40;;;6.10;99.90;;;;;;5041693;28;21073;-61
2021/11/02 00:44:58;;;;;;;5.00;4.40;;;6.10;99.90;;;;;;5039885;28;20237;-60
2021/11/02 00:47:27;;;;;;;7.43;5.07;;;6.10;99.90;;;;;;5040537;28;20251;-61
2021/11/02 00:49:57;;;;;;;7.70;5.17;;;6.10;99.90;;;;;;5041903;28;20267;-61
2021/11/02 00:52:25;;;;;;;4.87;4.20;;;6.00;99.90;;;;;;5040146;28;20651;-61
2021/11/02 00:54:54;;;;;;;6.40;4.87;;;6.10;99.90;;;;;;5040242;28;20642;-61
2021/11/02 00:57:23;;;;;;;7.37;4.27;;;6.00;99.90;;;;;;5047739;28;20722;-61
2021/11/02 00:59:52;;;;;;;4.90;4.33;;;6.00;99.90;;;;;;5038130;28;20258;-60
2021/11/02 01:02:20;;;;;;;7.03;4.90;;;5.90;99.90;;;;;;5037676;28;20283;-61
2021/11/02 01:05:27;;;;;;;7.17;4.73;;;5.90;99.90;;;;;;5044415;28;20602;-61
2021/11/02 01:07:59;;;;;;;11.07;5.20;;;5.80;99.90;;;;;;5071369;28;20196;-61
2021/11/02 01:10:28;;;;;;;8.27;4.97;;;5.80;99.90;;;;;;5040884;28;20702;-59
2021/11/02 01:12:56;;;;;;;6.67;5.27;;;5.70;99.90;;;;;;5037747;28;20261;-61
2021/11/02 01:15:27;;;;;;;9.33;5.60;;;5.80;99.90;;;;;;5038424;28;20244;-61
2021/11/02 01:17:56;;;;;;;12.83;6.20;;;5.80;99.90;;;;;;5042279;28;20257;-61
2021/11/02 01:20:28;;;;;;;7.23;5.47;;;5.80;99.90;;;;;;5015832;28;20209;-61
2021/11/02 01:22:57;;;;;;;11.17;5.60;;;5.80;99.90;;;;;;5037304;28;20216;-60
2021/11/02 01:25:25;;;;;;;7.73;6.20;;;5.80;99.90;;;;;;5071283;28;20266;-61
2021/11/02 01:27:54;;;;;;;11.83;6.07;;;5.90;99.90;;;;;;5044039;28;20270;-61
2021/11/02 01:30:22;;;;;;;11.77;6.50;;;5.90;99.90;;;;;;5045746;28;20205;-61
2021/11/02 01:32:51;;;;;;;10.30;6.23;;;5.90;99.90;;;;;;5063675;28;20193;-61
2021/11/02 01:35:19;;;;;;;10.23;6.13;;;5.90;99.90;;;;;;5043251;28;20288;-61
2021/11/02 01:37:50;;;;;;;11.57;7.00;;;6.00;99.90;;;;;;5047325;28;20254;-60
2021/11/02 01:40:20;;;;;;;9.07;6.53;;;6.00;99.90;;;;;;5047172;28;20236;-61
2021/11/02 01:42:50;;;;;;;13.73;6.80;;;6.10;99.90;;;;;;5045176;28;20235;-61
2021/11/02 01:45:18;;;;;;;13.33;6.40;;;6.10;99.90;;;;;;5046061;28;20229;-61
2021/11/02 01:47:48;;;;;;;14.17;7.27;;;6.10;99.90;;;;;;5054485;28;20615;-60
2021/11/02 01:50:17;;;;;;;13.80;6.77;;;6.10;99.90;;;;;;5042597;28;20223;-61
2021/11/02 01:52:46;;;;;;;17.70;7.30;;;6.10;99.90;;;;;;5037289;28;20200;-61
2021/11/02 01:55:17;;;;;;;14.43;7.63;;;6.10;99.90;;;;;;5047679;28;20224;-61
2021/11/02 01:57:47;;;;;;;15.53;7.50;;;6.10;99.90;;;;;;5066792;28;20282;-60
2021/11/02 02:00:18;;;;;;;13.03;7.13;;;6.20;99.90;;;;;;5042994;28;20954;-61
2021/11/02 02:02:57;;;;;;;16.40;7.63;;;6.20;99.90;;;;;;5039939;28;20289;-61
2021/11/02 02:05:34;;;;;;;18.47;7.80;;;6.20;99.90;;;;;;5076760;28;20204;-60
2021/11/02 02:08:13;;;;;;;15.17;7.23;;;6.20;99.90;;;;;;5037188;28;20204;-61
2021/11/02 02:10:53;;;;;;;13.00;7.20;;;6.20;99.90;;;;;;5053355;28;20273;-61
2021/11/02 02:13:29;;;;;;;13.97;6.80;;;6.30;99.90;;;;;;5042544;28;20197;-61
2021/11/02 02:16:07;;;;;;;12.43;6.77;;;6.30;99.90;;;;;;5040488;28;20489;-61
2021/11/02 02:18:42;;;;;;;14.73;7.10;;;6.30;99.90;;;;;;5043009;28;20196;-61
2021/11/02 02:21:19;;;;;;;11.47;7.00;;;6.20;99.90;;;;;;5041866;28;20184;-60
2021/11/02 02:24:09;;;;;;;12.23;6.53;;;6.20;99.90;;;;;;5039675;28;20275;-60
2021/11/02 02:27:16;;;;;;;14.43;6.77;;;6.20;99.90;;;;;;5056765;28;20282;-60
2021/11/02 02:29:47;;;;;;;18.70;7.03;;;6.20;99.90;;;;;;5044624;28;20224;-60
2021/11/02 02:32:21;;;;;;;11.43;6.90;;;6.20;99.90;;;;;;5038329;28;21756;-61
2021/11/02 02:34:53;;;;;;;13.93;6.60;;;6.20;99.90;;;;;;5038615;28;20299;-61
2021/11/02 02:37:24;;;;;;;16.53;7.50;;;6.20;99.90;;;;;;5042754;28;20194;-61
2021/11/02 02:39:57;;;;;;;11.43;7.10;;;6.20;99.90;;;;;;5040443;28;20423;-61
2021/11/02 02:42:28;;;;;;;16.63;7.47;;;6.10;99.90;;;;;;5035006;28;20207;-61
2021/11/02 02:44:59;;;;;;;12.67;7.13;;;6.10;99.90;;;;;;5037518;28;20772;-61
2021/11/02 02:47:29;;;;;;;18.23;7.67;;;6.00;99.90;;;;;;5043443;28;20231;-61
2021/11/02 02:49:59;;;;;;;14.90;7.30;;;6.00;99.90;;;;;;5042199;28;20870;-61
2021/11/02 02:52:30;;;;;;;16.90;7.77;;;6.00;99.90;;;;;;5038935;28;20609;-61
2021/11/02 02:55:00;;;;;;;15.77;8.00;;;6.00;99.90;;;;;;5037888;28;20192;-60
2021/11/02 02:57:30;;;;;;;16.73;8.20;;;6.10;99.90;;;;;;5052451;28;20295;-61
2021/11/02 03:00:01;;;;;;;16.60;8.43;;;6.10;99.90;;;;;;5032227;28;20201;-60
2021/11/02 03:02:34;;;;;;;17.50;7.93;;;6.20;99.90;;;;;;5037470;28;20197;-61
2021/11/02 03:05:07;;;;;;;18.63;8.67;;;6.20;99.90;;;;;;5035549;28;20291;-61
2021/11/02 03:07:37;;;;;;;26.53;9.20;;;6.20;99.90;;;;;;5033021;28;20205;-60
2021/11/02 03:10:06;;;;;;;16.80;8.97;;;6.20;99.90;;;;;;5038182;28;20247;-61
2021/11/02 03:12:37;;;;;;;13.70;8.33;;;6.30;99.90;;;;;;5038019;28;20233;-61
2021/11/02 03:15:25;;;;;;;17.20;8.63;;;6.30;99.90;;;;;;5039109;28;20200;-60
2021/11/02 03:18:02;;;;;;;17.10;8.50;;;6.30;99.90;;;;;;5037165;28;20209;-60
2021/11/02 03:43:29;;;;;;;13.47;8.57;;;6.40;99.90;;;;;;5034943;28;20204;-61
2021/11/02 03:43:42;;;;;;;19.23;10.23;;;6.50;99.90;;;;;;5042403;28;20224;-61
2021/11/02 03:49:06;;;;;;;20.63;10.00;;;6.70;99.90;;;;;;5036942;28;20200;-60
2021/11/02 03:51:50;;;;;;;16.23;10.40;;;6.70;99.90;;;;;;5038533;28;20254;-61
2021/11/02 03:57:21;;;;;;;20.13;10.73;;;6.80;99.90;;;;;;5021915;28;20706;-61
2021/11/02 04:28:19;;;;;;;16.40;11.37;;;7.20;99.90;;;;;;5020153;28;20215;-61
2021/11/02 04:31:11;;;;;;;19.03;10.93;;;7.30;99.90;;;;;;5026860;28;20224;-60
2021/11/02 05:13:18;;;;;;;20.77;10.90;;;7.50;99.90;;;;;;5035576;28;20295;-60
2021/11/02 05:49:50;;;;;;;15.70;9.80;;;7.70;99.90;;;;;;4993967;28;20693;-61
2021/11/02 05:55:27;;;;;;;16.03;10.47;;;7.80;99.90;;;;;;5001764;28;20248;-61
2021/11/02 05:58:04;;;;;;;21.43;9.93;;;7.80;99.90;;;;;;5033551;28;20703;-61
2021/11/02 06:00:36;;;;;;;17.03;9.80;;;7.80;99.90;;;;;;5052446;28;20565;-61
2021/11/02 06:03:26;;;;;;;14.97;9.73;;;7.80;99.90;;;;;;5035273;28;20196;-61
2021/11/02 06:06:03;;;;;;;17.70;10.00;;;7.80;99.90;;;;;;5038446;28;20189;-61
2021/11/02 06:08:54;;;;;;;17.43;9.93;;;7.80;99.90;;;;;;5035113;28;20216;-61
2021/11/02 06:28:48;;;;;;;17.43;10.33;;;7.80;99.90;;;;;;5016130;28;20595;-60
2021/11/02 06:31:20;;;;;;;13.23;9.90;;;7.90;99.90;;;;;;5037380;28;20201;-61
2021/11/02 06:33:59;;;;;;;16.13;10.63;;;7.90;99.90;;;;;;5040167;28;20213;-61
2021/11/02 06:39:31;;;;;;;14.03;10.13;;;8.00;99.90;;;;;;5026725;28;20211;-61
2021/11/02 06:42:27;;;;;;;16.30;10.10;;;8.00;99.90;;;;;;5036784;28;20193;-61
2021/11/02 07:19:29;;;;;;;18.27;10.60;;;8.30;99.90;;;;;;5032670;28;20201;-61
2021/11/02 07:22:11;;;;;;;14.87;10.23;;;8.30;99.90;;;;;;5031322;28;20202;-61
2021/11/02 07:24:48;;;;;;;14.23;9.40;;;8.20;99.90;;;;;;5034754;28;20228;-61
2021/11/02 07:27:32;;;;;;;15.10;10.00;;;8.30;99.90;;;;;;5035630;28;20263;-61
2021/11/02 08:47:07;;;;;;;12.90;10.60;;;8.40;99.90;;;;;;4994321;28;20198;-61
2021/11/02 08:49:41;;;;;;;13.23;9.00;;;8.50;99.90;;;;;;5002406;28;20214;-61
2021/11/02 08:52:11;;;;;;;13.20;10.03;;;8.40;99.90;;;;;;5046193;28;20191;-61
2021/11/02 08:54:42;;;;;;;13.23;9.43;;;8.40;99.90;;;;;;5048246;28;20310;-61
2021/11/02 08:57:11;;;;;;;12.37;9.30;;;8.40;99.90;;;;;;5037707;28;20224;-61
2021/11/02 08:59:39;;;;;;;11.50;9.00;;;8.50;99.90;;;;;;5043479;28;20288;-61
2021/11/02 09:02:09;;;;;;;13.13;9.57;;;8.60;99.90;;;;;;5039536;28;20200;-61
2021/11/02 09:04:44;;;;;;;11.00;8.60;;;8.60;99.90;;;;;;5033018;28;20194;-61
2021/11/02 09:07:20;;;;;;;10.30;8.20;;;8.70;99.90;;;;;;5029345;28;20197;-61
2021/11/02 09:09:51;;;;;;;14.23;8.80;;;8.70;99.90;;;;;;5033987;28;20286;-61
2021/11/02 09:12:20;;;;;;;13.73;9.10;;;8.80;99.90;;;;;;5036669;28;20743;-61
2021/11/02 09:14:49;;;;;;;11.07;9.33;;;8.80;99.90;;;;;;5033981;28;20253;-61
2021/11/02 09:17:21;;;;;;;11.77;9.03;;;8.80;99.90;;;;;;5035846;28;20203;-61
2021/11/02 09:19:49;;;;;;;11.90;9.67;;;8.80;99.90;;;;;;5029858;28;20188;-60
2021/11/02 09:22:19;;;;;;;13.20;9.60;;;8.90;99.90;;;;;;5042151;28;20296;-61
2021/11/02 09:24:52;;;;;;;12.23;9.63;;;8.90;99.90;;;;;;5035566;28;20229;-61
2021/11/02 09:27:21;;;;;;;13.20;8.67;;;9.00;99.90;;;;;;5040931;28;20629;-61
2021/11/02 09:29:49;;;;;;;12.93;8.57;;;9.00;99.90;;;;;;5034733;28;20294;-61
2021/11/02 09:32:18;;;;;;;10.70;8.97;;;9.10;99.90;;;;;;5040562;28;20555;-61
2021/11/02 09:34:47;;;;;;;10.67;8.27;;;9.10;99.90;;;;;;5017631;28;20511;-60
2021/11/02 09:37:18;;;;;;;11.77;8.80;;;9.10;99.90;;;;;;5043599;28;20712;-61
2021/11/02 09:39:50;;;;;;;12.87;8.83;;;9.10;99.90;;;;;;5033491;28;20240;-61
2021/11/02 09:43:08;;;;;;;9.90;8.20;;;9.10;99.90;;;;;;5041246;28;20312;-61
2021/11/02 09:46:21;;;;;;;9.13;8.10;;;9.10;99.90;;;;;;4974611;28;20278;-61
2021/11/02 09:49:25;;;;;;;10.97;8.43;;;9.10;99.90;;;;;;4977438;28;20286;-61
2021/11/02 09:52:22;;;;;;;9.50;8.00;;;9.10;99.90;;;;;;5047744;28;20721;-61
2021/11/02 09:55:34;;;;;;;10.30;8.33;;;9.10;99.90;;;;;;5043003;28;20267;-61
2021/11/02 09:58:20;;;;;;;9.20;7.80;;;9.00;99.90;;;;;;5037369;28;20197;-61
2021/11/02 10:01:07;;;;;;;7.93;7.30;;;9.00;99.90;;;;;;5045291;28;20666;-61
2021/11/02 10:04:12;;;;;;;9.80;7.83;;;9.10;99.90;;;;;;5038569;28;20209;-61
2021/11/02 10:07:18;;;;;;;10.83;8.43;;;9.10;99.90;;;;;;5038083;28;20597;-61
2021/11/02 10:09:59;;;;;;;8.50;7.80;;;9.10;99.90;;;;;;5037786;28;20269;-62
2021/11/02 10:12:47;;;;;;;8.57;7.67;;;9.00;99.90;;;;;;5040163;28;20263;-61
2021/11/02 10:15:42;;;;;;;8.77;7.90;;;9.10;99.90;;;;;;5032849;28;20713;-61
2021/11/02 10:18:33;;;;;;;11.07;8.60;;;9.10;99.90;;;;;;5037802;28;20914;-61
2021/11/02 10:21:47;;;;;;;8.90;8.00;;;9.20;99.90;;;;;;5032774;28;20671;-61
2021/11/02 10:24:50;;;;;;;10.30;7.60;;;9.40;99.90;;;;;;5034310;28;20193;-60
2021/11/02 10:27:56;;;;;;;10.10;7.83;;;9.50;99.90;;;;;;5034412;28;20182;-62
2021/11/02 10:30:48;;;;;;;10.23;8.23;;;9.60;99.90;;;;;;5035135;28;20189;-61
2021/11/02 10:33:21;;;;;;;10.20;7.33;;;9.60;99.90;;;;;;5036669;28;20668;-61
2021/11/02 10:36:25;;;;;;;7.03;6.50;;;9.40;99.90;;;;;;5035705;28;20570;-61
2021/11/02 10:39:09;;;;;;;8.10;6.30;;;9.40;99.90;;;;;;5033340;28;20377;-61
2021/11/02 10:41:49;;;;;;;7.30;6.63;;;9.40;99.90;;;;;;5033831;28;20575;-61
2021/11/02 10:44:28;;;;;;;7.37;6.57;;;9.40;99.90;;;;;;5037418;28;20248;-61
2021/11/02 10:47:04;;;;;;;7.23;6.53;;;9.40;99.90;;;;;;5039033;28;20659;-61
2021/11/02 10:49:53;;;;;;;6.50;6.00;;;9.40;99.90;;;;;;5036701;28;20923;-61
2021/11/02 10:52:27;;;;;;;6.10;5.60;;;9.40;99.90;;;;;;5033982;28;20189;-61
2021/11/02 10:55:06;;;;;;;6.00;5.67;;;9.40;99.90;;;;;;5041325;28;20274;-61
2021/11/02 10:57:44;;;;;;;6.70;6.17;;;9.50;99.90;;;;;;5027397;28;20779;-61
2021/11/02 11:00:20;;;;;;;7.60;6.80;;;9.50;99.90;;;;;;5038729;28;20188;-61
2021/11/02 11:02:51;;;;;;;6.50;5.87;;;9.60;99.90;;;;;;5045782;28;20823;-61
2021/11/02 11:05:20;;;;;;;6.20;5.67;;;9.60;99.90;;;;;;5042117;28;20271;-61
2021/11/02 11:07:50;;;;;;;6.23;5.70;;;9.70;99.90;;;;;;5040469;28;20624;-61
2021/11/02 11:10:19;;;;;;;5.73;5.33;;;9.70;99.90;;;;;;5047064;28;20233;-61
2021/11/02 11:12:51;;;;;;;5.37;4.97;;;9.60;99.90;;;;;;5041534;28;20362;-61
2021/11/02 11:15:21;;;;;;;5.37;4.90;;;9.60;99.90;;;;;;5039838;28;20216;-61
2021/11/02 11:17:55;;;;;;;5.17;4.70;;;9.60;99.90;;;;;;5035056;28;20197;-61
2021/11/02 11:20:24;;;;;;;4.60;4.30;;;9.60;99.90;;;;;;5040429;28;20197;-61
2021/11/02 11:22:54;;;;;;;4.17;3.87;;;9.60;99.90;;;;;;5062075;28;20193;-61
2021/11/02 11:25:29;;;;;;;3.97;3.53;;;9.60;99.90;;;;;;5039970;28;20186;-61
2021/11/02 11:28:00;;;;;;;3.73;3.40;;;9.60;99.90;;;;;;5041986;28;20543;-61
2021/11/02 11:30:33;;;;;;;3.87;3.57;;;9.60;99.90;;;;;;5042761;28;20656;-61
2021/11/02 11:33:08;;;;;;;3.87;3.57;;;9.60;99.90;;;;;;5036450;28;20235;-61
2021/11/02 11:35:37;;;;;;;4.37;3.70;;;9.60;99.90;;;;;;5043765;28;20266;-61
2021/11/02 11:38:12;;;;;;;3.90;3.60;;;9.60;99.90;;;;;;5040284;28;20185;-61
2021/11/02 11:40:42;;;;;;;4.33;3.73;;;9.60;99.90;;;;;;5036827;28;20729;-61
2021/11/02 11:43:13;;;;;;;5.10;4.70;;;9.60;99.90;;;;;;5039299;28;20698;-61
2021/11/02 11:45:52;;;;;;;7.30;5.07;;;9.60;99.90;;;;;;5033454;28;20288;-61
2021/11/02 11:48:24;;;;;;;8.83;8.03;;;9.70;99.90;;;;;;5040625;28;20208;-61
2021/11/02 11:50:55;;;;;;;3.77;3.43;;;9.80;99.90;;;;;;5044165;28;20193;-61
2021/11/02 11:53:25;;;;;;;5.47;4.20;;;9.90;99.90;;;;;;5043862;28;20534;-61
2021/11/02 11:56:05;;;;;;;5.23;4.77;;;9.90;99.90;;;;;;5042440;28;20314;-61
2021/11/02 11:58:36;;;;;;;6.23;4.80;;;10.00;99.90;;;;;;5036815;28;20961;-61
2021/11/02 12:01:14;;;;;;;5.90;5.50;;;10.00;99.90;;;;;;5038630;28;20244;-61
2021/11/02 12:03:52;;;;;;;7.30;4.83;;;10.00;99.90;;;;;;5034545;28;20302;-61
2021/11/02 12:06:24;;;;;;;5.77;5.27;;;10.10;99.90;;;;;;5056967;28;20254;-61
2021/11/02 12:08:58;;;;;;;6.57;4.90;;;10.20;99.90;;;;;;5039524;28;20192;-61
2021/11/02 12:11:29;;;;;;;6.13;5.60;;;10.30;99.90;;;;;;5037826;28;20196;-61
2021/11/02 12:14:06;;;;;;;5.73;5.30;;;10.30;99.90;;;;;;5038810;28;20612;-61
2021/11/02 12:16:39;;;;;;;5.17;4.83;;;10.40;99.90;;;;;;5034620;28;20299;-61
2021/11/02 12:19:13;;;;;;;5.60;5.17;;;10.40;99.90;;;;;;5039922;28;20624;-61
2021/11/02 12:21:47;;;;;;;8.83;6.27;;;10.40;99.90;;;;;;5033750;28;20360;-61
2021/11/02 12:24:16;;;;;;;10.20;8.10;;;10.50;99.90;;;;;;5035353;28;20200;-61
2021/11/02 12:26:47;;;;;;;9.87;8.30;;;10.70;99.90;;;;;;5040303;28;20197;-61
2021/11/02 12:29:20;;;;;;;11.90;8.50;;;10.80;99.90;;;;;;5038930;28;20228;-61
2021/11/02 12:31:57;;;;;;;8.40;6.30;;;10.70;99.90;;;;;;5036553;28;20704;-61
2021/11/02 12:34:28;;;;;;;5.77;5.27;;;10.80;99.90;;;;;;5034987;28;20286;-61
2021/11/02 12:36:59;;;;;;;7.63;6.87;;;10.80;99.90;;;;;;5036311;28;20232;-61
2021/11/02 12:39:31;;;;;;;11.20;8.10;;;10.80;99.90;;;;;;5015728;28;20304;-61
2021/11/02 12:42:02;;;;;;;10.30;8.23;;;10.80;99.90;;;;;;5036063;28;20271;-61
2021/11/02 12:44:36;;;;;;;10.07;9.07;;;10.80;99.90;;;;;;5035080;28;20243;-61
2021/11/02 12:47:10;;;;;;;13.30;10.07;;;10.90;99.90;;;;;;5032971;28;20200;-61
2021/11/02 12:49:45;;;;;;;10.70;9.60;;;10.90;99.90;;;;;;5042752;28;20197;-60
2021/11/02 12:52:15;;;;;;;15.20;7.67;;;10.90;99.90;;;;;;5043588;28;20199;-61
2021/11/02 12:54:57;;;;;;;12.57;9.10;;;11.00;99.90;;;;;;5039255;28;20314;-61
2021/11/02 12:57:34;;;;;;;11.20;8.13;;;11.20;99.90;;;;;;5037642;28;20209;-61
2021/11/02 13:00:07;;;;;;;6.60;6.00;;;11.20;99.90;;;;;;5032377;28;20563;-61
2021/11/02 13:02:43;;;;;;;7.53;6.83;;;11.40;99.90;;;;;;5034759;28;20216;-61
2021/11/02 13:05:17;;;;;;;7.00;6.30;;;11.40;99.90;;;;;;5036189;28;20197;-61
2021/11/02 13:07:56;;;;;;;6.97;6.27;;;11.50;99.90;;;;;;5044498;28;20224;-60
2021/11/02 13:10:31;;;;;;;10.67;9.60;;;11.50;99.90;;;;;;5032617;28;20197;-61
2021/11/02 13:13:06;;;;;;;6.50;6.00;;;11.50;99.90;;;;;;5045364;28;20215;-61
2021/11/02 13:15:48;;;;;;;10.33;6.20;;;11.70;99.90;;;;;;5036671;28;20288;-61
2021/11/02 13:18:30;;;;;;;6.53;5.33;;;11.90;99.90;;;;;;5031757;28;20199;-61
2021/11/02 13:21:21;;;;;;;7.67;6.43;;;12.00;99.90;;;;;;5039623;28;20254;-61
2021/11/02 13:23:57;;;;;;;7.37;5.93;;;12.10;99.90;;;;;;5034519;28;20278;-61
2021/11/02 13:26:26;;;;;;;5.90;5.50;;;12.30;99.90;;;;;;5039608;28;20933;-61
2021/11/02 13:29:09;;;;;;;5.83;5.40;;;12.40;99.90;;;;;;5044045;28;20189;-61
2021/11/02 13:31:38;;;;;;;6.43;5.50;;;12.30;99.90;;;;;;5036242;28;20197;-61
2021/11/02 13:34:15;;;;;;;8.87;5.70;;;12.10;99.90;;;;;;5041167;28;20201;-61
2021/11/02 13:36:44;;;;;;;8.13;6.50;;;11.90;99.90;;;;;;5038441;28;20220;-59
2021/11/02 13:39:14;;;;;;;6.17;5.60;;;11.90;99.90;;;;;;5038106;28;20205;-61
2021/11/02 13:41:48;;;;;;;6.83;5.80;;;11.90;99.90;;;;;;5035450;28;20267;-61
2021/11/02 13:44:18;;;;;;;6.63;5.73;;;12.00;99.90;;;;;;5040083;28;20256;-61
2021/11/02 13:46:49;;;;;;;7.60;6.90;;;12.10;99.90;;;;;;5041598;28;20669;-61
2021/11/02 13:49:20;;;;;;;9.53;7.30;;;12.20;99.90;;;;;;5039704;28;20233;-60
2021/11/02 13:51:51;;;;;;;7.87;7.27;;;12.30;99.90;;;;;;5046360;28;21124;-61
2021/11/02 13:54:21;;;;;;;7.57;6.00;;;12.50;99.90;;;;;;5041496;28;20204;-61
2021/11/02 13:56:50;;;;;;;7.10;6.40;;;12.60;99.90;;;;;;5040309;28;20567;-61
2021/11/02 13:59:18;;;;;;;8.30;7.50;;;12.60;99.90;;;;;;5040365;28;20204;-61
2021/11/02 14:01:49;;;;;;;7.93;6.37;;;12.70;99.90;;;;;;5038745;28;20212;-61
2021/11/02 14:04:23;;;;;;;7.77;5.87;;;12.60;99.90;;;;;;5036619;28;20208;-61
2021/11/02 14:06:54;;;;;;;9.23;7.60;;;12.70;99.90;;;;;;5039221;28;20227;-60
2021/11/02 14:09:26;;;;;;;8.60;7.23;;;12.80;99.90;;;;;;5042531;28;20205;-61
2021/11/02 14:11:55;;;;;;;6.37;5.87;;;12.80;99.90;;;;;;5039530;28;20215;-61
2021/11/02 14:14:31;;;;;;;7.67;6.97;;;13.00;99.90;;;;;;5039202;28;20276;-61
2021/11/02 14:17:14;;;;;;;23.50;15.97;;;13.00;99.90;;;;;;5036092;28;20634;-61
2021/11/02 14:19:45;;;;;;;12.37;10.40;;;13.10;99.90;;;;;;5037022;28;20207;-60
2021/11/02 14:22:15;;;;;;;6.53;5.93;;;13.10;99.90;;;;;;5040048;28;20228;-60
2021/11/02 14:24:45;;;;;;;9.73;5.87;;;13.10;99.90;;;;;;5040624;28;20201;-60
2021/11/02 14:27:21;;;;;;;6.03;5.43;;;13.20;99.90;;;;;;5039415;28;20208;-61
2021/11/02 14:29:55;;;;;;;6.10;5.60;;;13.10;99.90;;;;;;5041109;28;20197;-61
2021/11/02 14:32:52;;;;;;;10.60;6.70;;;12.90;99.90;;;;;;5038917;28;20560;-61
2021/11/02 14:35:47;;;;;;;9.67;6.57;;;12.80;99.90;;;;;;5038027;28;20201;-61
2021/11/02 14:38:17;;;;;;;10.03;7.80;;;12.60;99.90;;;;;;5053478;28;20787;-61
2021/11/02 14:40:59;;;;;;;10.60;7.67;;;12.40;99.90;;;;;;5041647;28;20226;-61
2021/11/02 14:43:31;;;;;;;9.20;7.17;;;12.30;99.90;;;;;;5046690;28;20288;-61
2021/11/02 14:46:03;;;;;;;8.90;7.13;;;12.20;99.90;;;;;;5038158;28;20219;-60
2021/11/02 14:48:48;;;;;;;8.80;7.40;;;12.10;99.90;;;;;;5039850;28;20609;-61
2021/11/02 14:51:29;;;;;;;8.60;7.70;;;11.90;99.90;;;;;;5044680;28;20234;-61
2021/11/02 14:54:18;;;;;;;8.03;7.33;;;11.80;99.90;;;;;;5036646;28;20232;-60
2021/11/02 14:57:37;;;;;;;10.77;7.27;;;11.80;99.90;;;;;;5042402;28;20217;-61
2021/11/02 15:00:07;;;;;;;9.10;8.10;;;11.80;99.90;;;;;;5043489;28;20193;-61
2021/11/02 15:02:39;;;;;;;12.87;8.63;;;11.70;99.90;;;;;;5048151;28;20193;-61
2021/11/02 15:05:10;;;;;;;12.53;8.73;;;11.60;99.90;;;;;;5038042;28;20201;-60
2021/11/02 15:07:43;;;;;;;9.83;8.30;;;11.50;99.90;;;;;;5044872;28;20229;-61
2021/11/02 15:10:14;;;;;;;12.17;7.60;;;11.40;99.90;;;;;;5044721;28;20204;-61
2021/11/02 15:12:45;;;;;;;9.40;7.67;;;11.30;99.90;;;;;;5043476;28;20290;-61
2021/11/02 15:15:14;;;;;;;8.77;7.03;;;11.30;99.90;;;;;;5044006;28;20193;-61
2021/11/02 15:17:43;;;;;;;9.40;8.20;;;11.20;99.90;;;;;;5045080;28;20205;-61
2021/11/02 15:20:25;;;;;;;10.27;7.63;;;11.10;99.90;;;;;;5044895;28;20196;-61
2021/11/02 15:22:56;;;;;;;9.87;7.80;;;11.10;99.90;;;;;;5039458;28;20201;-61
2021/11/02 15:25:25;;;;;;;10.90;8.03;;;11.00;99.90;;;;;;5046238;28;20304;-61
2021/11/02 15:28:00;;;;;;;9.73;7.30;;;11.00;99.90;;;;;;5044172;28;20622;-61
2021/11/02 15:30:29;;;;;;;10.73;7.73;;;10.90;99.90;;;;;;5037109;28;20215;-61
2021/11/02 15:32:58;;;;;;;10.17;8.30;;;10.70;99.90;;;;;;5037374;28;20583;-61
2021/11/02 15:35:29;;;;;;;10.47;8.33;;;10.60;99.90;;;;;;5044052;28;20207;-61
2021/11/02 15:38:01;;;;;;;13.07;8.73;;;10.50;99.90;;;;;;5036468;28;20302;-61
2021/11/02 15:40:39;;;;;;;30.37;20.27;;;10.40;99.90;;;;;;5045133;28;20213;-61
2021/11/02 15:43:10;;;;;;;15.07;10.63;;;10.40;99.90;;;;;;5030399;28;20198;-61
2021/11/02 15:45:40;;;;;;;11.77;8.53;;;10.30;99.90;;;;;;5038389;28;20227;-61
2021/11/02 15:48:11;;;;;;;10.83;9.30;;;10.20;99.90;;;;;;5035414;28;20372;-61
2021/11/02 15:50:43;;;;;;;9.27;8.20;;;10.10;99.90;;;;;;5039464;28;20201;-61
2021/11/02 15:53:14;;;;;;;10.63;9.20;;;10.00;99.90;;;;;;5033634;28;20292;-61
2021/11/02 15:55:42;;;;;;;11.37;8.27;;;9.90;99.90;;;;;;5033324;28;20640;-61
2021/11/02 15:58:15;;;;;;;12.67;8.20;;;9.90;99.90;;;;;;5042268;28;20660;-62
2021/11/02 16:00:45;;;;;;;9.27;8.00;;;9.80;99.90;;;;;;5041462;28;20216;-59
2021/11/02 16:03:14;;;;;;;12.50;8.80;;;9.70;99.90;;;;;;5035445;28;20746;-62
2021/11/02 16:05:44;;;;;;;10.37;8.33;;;9.70;99.90;;;;;;5036286;28;20194;-62
2021/11/02 16:08:19;;;;;;;12.47;8.67;;;9.60;99.90;;;;;;5038331;28;20216;-62
2021/11/02 16:10:50;;;;;;;9.83;8.83;;;9.50;99.90;;;;;;5032993;28;20284;-61
2021/11/02 16:13:25;;;;;;;12.13;9.67;;;9.40;99.90;;;;;;5033720;28;20207;-62
2021/11/02 16:15:54;;;;;;;21.67;13.73;;;9.30;99.90;;;;;;5037964;28;20201;-62
2021/11/02 16:18:30;;;;;;;13.73;11.17;;;9.20;99.90;;;;;;5035904;28;20207;-62
2021/11/02 16:21:01;;;;;;;16.67;10.80;;;9.10;99.90;;;;;;5037645;28;20271;-62
2021/11/02 16:23:41;;;;;;;20.50;10.43;;;9.00;99.90;;;;;;5040147;28;20247;-62
2021/11/02 16:26:14;;;;;;;11.20;8.20;;;8.90;99.90;;;;;;5033987;28;20207;-61
2021/11/02 16:28:44;;;;;;;11.70;9.13;;;8.80;99.90;;;;;;5029786;28;20747;-61
2021/11/02 16:31:23;;;;;;;10.97;8.37;;;8.70;99.90;;;;;;5036784;28;20232;-61
2021/11/02 16:33:52;;;;;;;14.40;8.80;;;8.70;99.90;;;;;;5031676;28;20229;-62
2021/11/02 16:36:24;;;;;;;12.10;9.03;;;8.60;99.90;;;;;;5039247;28;20196;-62
2021/11/02 16:38:56;;;;;;;14.53;10.90;;;8.50;99.90;;;;;;5034343;28;20274;-61
2021/11/02 16:41:27;;;;;;;15.53;10.30;;;8.40;99.90;;;;;;5035015;28;20192;-61
2021/11/02 16:43:58;;;;;;;22.20;12.90;;;8.30;99.90;;;;;;5036716;28;20723;-61
2021/11/02 16:46:29;;;;;;;18.73;11.50;;;8.30;99.90;;;;;;5038634;28;20204;-61
2021/11/02 16:49:00;;;;;;;13.97;9.83;;;8.20;99.90;;;;;;5038303;28;20193;-62
2021/11/02 16:51:47;;;;;;;13.80;8.37;;;8.10;99.90;;;;;;5030613;28;20629;-62
2021/11/02 16:54:20;;;;;;;16.40;10.47;;;8.00;99.90;;;;;;5036794;28;20277;-61
2021/11/02 16:57:02;;;;;;;14.27;11.50;;;7.90;99.90;;;;;;5034868;28;21610;-61
2021/11/02 16:59:49;;;;;;;11.27;8.13;;;7.90;99.90;;;;;;5034420;28;20544;-61
2021/11/02 17:02:19;;;;;;;10.80;8.13;;;7.80;99.90;;;;;;5040524;28;20224;-62
2021/11/02 17:05:02;;;;;;;14.50;8.03;;;7.80;99.90;;;;;;5037553;28;20676;-61
2021/11/02 17:07:35;;;;;;;9.83;7.87;;;7.70;99.90;;;;;;5035689;28;20196;-61
2021/11/02 17:10:32;;;;;;;9.57;7.37;;;7.70;99.90;;;;;;5033008;28;20224;-61
2021/11/02 17:13:03;;;;;;;8.90;7.43;;;7.60;99.90;;;;;;5039452;28;20732;-61
2021/11/02 17:15:34;;;;;;;11.20;7.23;;;7.50;99.90;;;;;;5036923;28;20256;-61
2021/11/02 17:18:07;;;;;;;10.07;7.80;;;7.50;99.90;;;;;;5030944;28;20312;-61
2021/11/02 17:20:36;;;;;;;10.30;7.43;;;7.40;99.90;;;;;;5033519;28;20618;-61
2021/11/02 17:23:05;;;;;;;10.63;7.90;;;7.30;99.90;;;;;;5036037;28;20967;-61
2021/11/02 17:25:36;;;;;;;12.90;7.47;;;7.30;99.90;;;;;;5017435;28;20675;-61
2021/11/02 17:28:05;;;;;;;10.70;8.20;;;7.20;99.90;;;;;;5032723;28;20228;-61
2021/11/02 17:30:34;;;;;;;13.80;8.53;;;7.10;99.90;;;;;;5030949;28;20793;-61
2021/11/02 17:33:04;;;;;;;10.50;8.53;;;7.10;99.90;;;;;;5038859;28;20690;-61
2021/11/02 17:35:33;;;;;;;12.27;8.27;;;7.00;99.90;;;;;;5035626;28;20852;-62
2021/11/02 17:38:03;;;;;;;10.53;7.93;;;7.00;99.90;;;;;;5032318;28;20256;-62
2021/11/02 17:40:32;;;;;;;9.83;7.30;;;6.90;99.90;;;;;;5031525;28;20194;-61
2021/11/02 17:43:03;;;;;;;11.60;7.60;;;6.80;99.90;;;;;;5040216;28;20197;-61
2021/11/02 17:45:32;;;;;;;9.83;7.23;;;6.80;99.90;;;;;;5039839;28;20937;-61
2021/11/02 17:48:04;;;;;;;10.40;6.97;;;6.70;99.90;;;;;;5037688;28;20247;-61
2021/11/02 17:50:34;;;;;;;12.03;7.37;;;6.70;99.90;;;;;;5019806;28;20201;-61
2021/11/02 17:53:03;;;;;;;9.00;7.37;;;6.60;99.90;;;;;;5036084;28;20250;-61